Echola, AL (35457)

11:03 AM CST on January 25, 2015 (GMT -0600)
Bethany | Change Station
CLOSE
Current Station
Personal Weather Station
Location: Buhl, AL
Elevation: 367 ft
Nearby Weather Stations

Elev 367 ft 33.32 °N, 87.74 °W | Updated 3 minutes ago

Clear
Clear
53.4 °F
Feels Like 53.4 °F
N
3.1
Wind Variable Wind from SW
Gusts 10.7 mph

Today
High -- | Low -- °F
--% Chance of Precip.
Yesterday
High -- | Low -- °F
Precip. -- in
6:51 AM 5:16 PM
Waxing Crescent, 34% visible
Pressure 29.89 in
Visibility 10.0 miles
Clouds Clear
Dew Point 42 °F
Humidity 65%
Rainfall 0.00 in
Snow Depth Not available.
UV 4 out of 12
Pollen 3.70 out of 12
Air Quality Not available.
Flu Activity Not available.
METAR KTCL 251653Z 20010KT 10SM CLR 11/03 A2989 RMK AO2 SLP121 T01110033

More Conditions Fewer Conditions

Pressure 29.89 in
Visibility 10.0 miles
Clouds Clear
Dew Point 42 °F
Humidity 65%
Rainfall 0.00 in
Snow Depth Not available.
UV 4 out of 12
Pollen 3.70 out of 12
Air Quality Not available.
Flu Activity Not available.
METAR KTCL 251653Z 20010KT 10SM CLR 11/03 A2989 RMK AO2 SLP121 T01110033

More Conditions Fewer Conditions

10-Day Weather Forecast

Almanac

Astronomy

Jan. 25, 2015 Rise Set
Actual Time
Civil Twilight
Nautical Twilight
Astronomical Twilight
Moon
Length of Visible Light
Length of Day
Tomorrow will be .
, % of the Moon is Illuminated

Today's Extremes

State Highs State Lows

Community

WunderPhotos

Upload Photos

1,789,980 photos uploaded!

WunderBlogs® & News

Nearby

Air Quality

  Air Quality AQ Index Pollutant
Not available.

Snow Depth

Station Depth Elevation

Earthquake Activity

City Distance Mag. Time & Date
Minimum magnitude displayed is 2.5.

Coastal Water Temperatures

Place Temperature

Nearby Weather Stations